sensor_id;sensor_type;location;lat;lon;timestamp;P1;durP1;ratioP1;P2;durP2;ratioP2
15192;SDS011;7697;51.630;7.484;2023-03-23T00:02:42;6.40;;;3.80;;
15192;SDS011;7697;51.630;7.484;2023-03-23T00:07:45;4.40;;;3.05;;
15192;SDS011;7697;51.630;7.484;2023-03-23T00:12:52;4.28;;;3.30;;
15192;SDS011;7697;51.630;7.484;2023-03-23T00:17:58;3.25;;;2.63;;
15192;SDS011;7697;51.630;7.484;2023-03-23T00:23:02;3.95;;;3.05;;
15192;SDS011;7697;51.630;7.484;2023-03-23T00:28:04;3.55;;;3.00;;
15192;SDS011;7697;51.630;7.484;2023-03-23T00:33:07;4.70;;;3.00;;
15192;SDS011;7697;51.630;7.484;2023-03-23T00:38:12;5.05;;;3.15;;
15192;SDS011;7697;51.630;7.484;2023-03-23T00:43:14;3.05;;;2.50;;
15192;SDS011;7697;51.630;7.484;2023-03-23T00:48:18;6.35;;;3.50;;
15192;SDS011;7697;51.630;7.484;2023-03-23T00:53:20;4.07;;;3.00;;
15192;SDS011;7697;51.630;7.484;2023-03-23T00:58:21;3.28;;;2.67;;
15192;SDS011;7697;51.630;7.484;2023-03-23T01:03:25;3.17;;;2.53;;
15192;SDS011;7697;51.630;7.484;2023-03-23T01:08:28;4.97;;;2.97;;
15192;SDS011;7697;51.630;7.484;2023-03-23T01:13:31;3.50;;;2.38;;
15192;SDS011;7697;51.630;7.484;2023-03-23T01:18:36;4.05;;;2.80;;
15192;SDS011;7697;51.630;7.484;2023-03-23T01:23:39;5.15;;;2.60;;
15192;SDS011;7697;51.630;7.484;2023-03-23T01:28:41;2.92;;;2.50;;
15192;SDS011;7697;51.630;7.484;2023-03-23T01:33:46;2.80;;;2.38;;
15192;SDS011;7697;51.630;7.484;2023-03-23T01:38:48;4.15;;;3.10;;
15192;SDS011;7697;51.630;7.484;2023-03-23T01:43:55;5.60;;;2.85;;
15192;SDS011;7697;51.630;7.484;2023-03-23T01:49:02;2.97;;;2.45;;
15192;SDS011;7697;51.630;7.484;2023-03-23T01:54:12;5.60;;;3.08;;
15192;SDS011;7697;51.630;7.484;2023-03-23T01:59:19;7.15;;;3.45;;
15192;SDS011;7697;51.630;7.484;2023-03-23T02:04:23;5.35;;;2.60;;
15192;SDS011;7697;51.630;7.484;2023-03-23T02:09:26;4.28;;;2.30;;
15192;SDS011;7697;51.630;7.484;2023-03-23T02:14:28;4.38;;;2.33;;
15192;SDS011;7697;51.630;7.484;2023-03-23T02:19:45;3.30;;;2.30;;
15192;SDS011;7697;51.630;7.484;2023-03-23T02:25:05;2.05;;;1.80;;
15192;SDS011;7697;51.630;7.484;2023-03-23T02:36:02;3.22;;;2.10;;
15192;SDS011;7697;51.630;7.484;2023-03-23T02:41:08;3.10;;;2.03;;
15192;SDS011;7697;51.630;7.484;2023-03-23T02:46:12;3.08;;;1.92;;
15192;SDS011;7697;51.630;7.484;2023-03-23T02:51:16;2.92;;;1.80;;
15192;SDS011;7697;51.630;7.484;2023-03-23T02:56:21;1.98;;;1.60;;
15192;SDS011;7697;51.630;7.484;2023-03-23T03:01:50;2.28;;;1.80;;
15192;SDS011;7697;51.630;7.484;2023-03-23T03:07:04;3.35;;;1.83;;
15192;SDS011;7697;51.630;7.484;2023-03-23T03:12:17;4.35;;;2.10;;
15192;SDS011;7697;51.630;7.484;2023-03-23T03:17:30;2.92;;;2.22;;
15192;SDS011;7697;51.630;7.484;2023-03-23T03:22:34;2.55;;;2.13;;
15192;SDS011;7697;51.630;7.484;2023-03-23T03:27:42;2.85;;;2.10;;
15192;SDS011;7697;51.630;7.484;2023-03-23T03:32:49;4.38;;;2.13;;
15192;SDS011;7697;51.630;7.484;2023-03-23T03:37:56;2.80;;;1.90;;
15192;SDS011;7697;51.630;7.484;2023-03-23T03:42:58;4.55;;;2.22;;
15192;SDS011;7697;51.630;7.484;2023-03-23T03:47:59;2.22;;;1.80;;
15192;SDS011;7697;51.630;7.484;2023-03-23T03:53:03;2.58;;;2.08;;
15192;SDS011;7697;51.630;7.484;2023-03-23T03:58:05;2.17;;;1.98;;
15192;SDS011;7697;51.630;7.484;2023-03-23T04:03:08;2.55;;;2.13;;
15192;SDS011;7697;51.630;7.484;2023-03-23T04:08:11;3.22;;;2.05;;
15192;SDS011;7697;51.630;7.484;2023-03-23T04:13:13;2.45;;;1.95;;
15192;SDS011;7697;51.630;7.484;2023-03-23T04:18:16;3.88;;;2.10;;
15192;SDS011;7697;51.630;7.484;2023-03-23T04:23:20;2.42;;;1.88;;
15192;SDS011;7697;51.630;7.484;2023-03-23T04:28:22;2.67;;;1.92;;
15192;SDS011;7697;51.630;7.484;2023-03-23T04:33:25;2.95;;;2.00;;
15192;SDS011;7697;51.630;7.484;2023-03-23T04:38:31;2.53;;;2.20;;
15192;SDS011;7697;51.630;7.484;2023-03-23T04:43:34;2.28;;;1.90;;
15192;SDS011;7697;51.630;7.484;2023-03-23T04:48:41;4.82;;;2.70;;
15192;SDS011;7697;51.630;7.484;2023-03-23T04:53:44;3.33;;;2.42;;
15192;SDS011;7697;51.630;7.484;2023-03-23T04:58:46;2.95;;;2.45;;
15192;SDS011;7697;51.630;7.484;2023-03-23T05:03:48;3.42;;;2.60;;
15192;SDS011;7697;51.630;7.484;2023-03-23T05:08:51;4.50;;;2.70;;
15192;SDS011;7697;51.630;7.484;2023-03-23T05:13:53;4.03;;;3.08;;
15192;SDS011;7697;51.630;7.484;2023-03-23T05:18:54;4.45;;;2.78;;
15192;SDS011;7697;51.630;7.484;2023-03-23T05:23:58;3.70;;;2.65;;
15192;SDS011;7697;51.630;7.484;2023-03-23T05:29:00;3.05;;;2.75;;
15192;SDS011;7697;51.630;7.484;2023-03-23T05:34:02;3.92;;;3.00;;
15192;SDS011;7697;51.630;7.484;2023-03-23T05:39:06;3.05;;;2.40;;
15192;SDS011;7697;51.630;7.484;2023-03-23T05:44:10;3.83;;;2.95;;
15192;SDS011;7697;51.630;7.484;2023-03-23T05:49:13;3.83;;;2.83;;
15192;SDS011;7697;51.630;7.484;2023-03-23T05:54:17;3.85;;;3.10;;
15192;SDS011;7697;51.630;7.484;2023-03-23T05:59:19;4.80;;;3.13;;
15192;SDS011;7697;51.630;7.484;2023-03-23T06:04:21;3.08;;;2.47;;
15192;SDS011;7697;51.630;7.484;2023-03-23T06:09:26;5.25;;;3.50;;
15192;SDS011;7697;51.630;7.484;2023-03-23T06:14:28;5.55;;;3.88;;
15192;SDS011;7697;51.630;7.484;2023-03-23T06:19:30;5.22;;;3.47;;
15192;SDS011;7697;51.630;7.484;2023-03-23T06:24:33;5.22;;;3.40;;
15192;SDS011;7697;51.630;7.484;2023-03-23T06:29:35;5.20;;;3.05;;
15192;SDS011;7697;51.630;7.484;2023-03-23T06:34:38;6.78;;;3.88;;
15192;SDS011;7697;51.630;7.484;2023-03-23T06:39:42;5.80;;;3.15;;
15192;SDS011;7697;51.630;7.484;2023-03-23T06:44:44;5.72;;;3.33;;
15192;SDS011;7697;51.630;7.484;2023-03-23T06:49:46;5.68;;;3.20;;
15192;SDS011;7697;51.630;7.484;2023-03-23T06:54:49;4.90;;;3.40;;
15192;SDS011;7697;51.630;7.484;2023-03-23T06:59:51;9.73;;;4.22;;
15192;SDS011;7697;51.630;7.484;2023-03-23T07:04:53;7.63;;;3.67;;
15192;SDS011;7697;51.630;7.484;2023-03-23T07:09:57;4.40;;;2.85;;
15192;SDS011;7697;51.630;7.484;2023-03-23T07:14:59;5.90;;;3.40;;
15192;SDS011;7697;51.630;7.484;2023-03-23T07:20:00;4.63;;;3.60;;
15192;SDS011;7697;51.630;7.484;2023-03-23T07:25:04;7.75;;;3.30;;
15192;SDS011;7697;51.630;7.484;2023-03-23T07:30:08;6.32;;;4.03;;
15192;SDS011;7697;51.630;7.484;2023-03-23T07:35:10;5.32;;;2.92;;
15192;SDS011;7697;51.630;7.484;2023-03-23T07:40:14;2.95;;;2.25;;
15192;SDS011;7697;51.630;7.484;2023-03-23T07:45:19;5.85;;;3.67;;
15192;SDS011;7697;51.630;7.484;2023-03-23T07:50:21;5.53;;;3.40;;
15192;SDS011;7697;51.630;7.484;2023-03-23T07:55:25;3.90;;;2.70;;
15192;SDS011;7697;51.630;7.484;2023-03-23T08:00:28;4.25;;;2.35;;
15192;SDS011;7697;51.630;7.484;2023-03-23T08:05:34;5.82;;;2.72;;
15192;SDS011;7697;51.630;7.484;2023-03-23T08:10:37;2.63;;;1.88;;
15192;SDS011;7697;51.630;7.484;2023-03-23T08:15:42;9.68;;;2.50;;
15192;SDS011;7697;51.630;7.484;2023-03-23T08:20:44;5.30;;;2.72;;
15192;SDS011;7697;51.630;7.484;2023-03-23T08:25:47;7.57;;;2.45;;
15192;SDS011;7697;51.630;7.484;2023-03-23T08:30:49;5.57;;;2.50;;
15192;SDS011;7697;51.630;7.484;2023-03-23T08:35:55;5.47;;;2.95;;
15192;SDS011;7697;51.630;7.484;2023-03-23T08:40:59;5.25;;;3.03;;
15192;SDS011;7697;51.630;7.484;2023-03-23T08:46:05;4.47;;;2.50;;
15192;SDS011;7697;51.630;7.484;2023-03-23T08:51:09;3.85;;;1.73;;
15192;SDS011;7697;51.630;7.484;2023-03-23T08:56:13;4.45;;;2.13;;
15192;SDS011;7697;51.630;7.484;2023-03-23T09:01:15;4.38;;;1.90;;
15192;SDS011;7697;51.630;7.484;2023-03-23T09:06:18;6.53;;;2.60;;
15192;SDS011;7697;51.630;7.484;2023-03-23T09:11:22;4.03;;;2.60;;
15192;SDS011;7697;51.630;7.484;2023-03-23T09:16:24;5.22;;;3.15;;
15192;SDS011;7697;51.630;7.484;2023-03-23T09:21:26;6.07;;;2.22;;
15192;SDS011;7697;51.630;7.484;2023-03-23T09:26:30;8.43;;;2.60;;
15192;SDS011;7697;51.630;7.484;2023-03-23T09:31:33;8.75;;;2.58;;
15192;SDS011;7697;51.630;7.484;2023-03-23T09:36:36;6.85;;;2.15;;
15192;SDS011;7697;51.630;7.484;2023-03-23T09:41:54;4.93;;;2.42;;
15192;SDS011;7697;51.630;7.484;2023-03-23T09:47:10;5.43;;;2.30;;
15192;SDS011;7697;51.630;7.484;2023-03-23T09:52:18;10.30;;;2.17;;
15192;SDS011;7697;51.630;7.484;2023-03-23T09:57:24;5.00;;;2.33;;
15192;SDS011;7697;51.630;7.484;2023-03-23T10:02:32;4.82;;;2.45;;
15192;SDS011;7697;51.630;7.484;2023-03-23T10:07:39;5.03;;;2.00;;
15192;SDS011;7697;51.630;7.484;2023-03-23T10:12:45;5.55;;;2.33;;
15192;SDS011;7697;51.630;7.484;2023-03-23T10:17:52;2.88;;;1.20;;
15192;SDS011;7697;51.630;7.484;2023-03-23T10:23:02;2.15;;;1.30;;
15192;SDS011;7697;51.630;7.484;2023-03-23T10:28:17;2.20;;;1.30;;
15192;SDS011;7697;51.630;7.484;2023-03-23T10:33:24;3.20;;;1.30;;
15192;SDS011;7697;51.630;7.484;2023-03-23T10:38:31;3.03;;;1.30;;
15192;SDS011;7697;51.630;7.484;2023-03-23T10:43:40;1.98;;;1.20;;
15192;SDS011;7697;51.630;7.484;2023-03-23T10:48:43;5.45;;;1.35;;
15192;SDS011;7697;51.630;7.484;2023-03-23T10:53:49;3.58;;;1.10;;
15192;SDS011;7697;51.630;7.484;2023-03-23T10:58:54;2.85;;;1.30;;
15192;SDS011;7697;51.630;7.484;2023-03-23T11:03:56;2.00;;;1.30;;
15192;SDS011;7697;51.630;7.484;2023-03-23T11:09:01;4.63;;;2.47;;
15192;SDS011;7697;51.630;7.484;2023-03-23T11:19:29;6.38;;;2.80;;
15192;SDS011;7697;51.630;7.484;2023-03-23T11:24:33;5.55;;;2.85;;
15192;SDS011;7697;51.630;7.484;2023-03-23T11:29:46;7.95;;;2.70;;
15192;SDS011;7697;51.630;7.484;2023-03-23T11:34:54;7.45;;;3.10;;
15192;SDS011;7697;51.630;7.484;2023-03-23T11:39:58;4.18;;;2.30;;
15192;SDS011;7697;51.630;7.484;2023-03-23T11:45:14;6.25;;;2.58;;
15192;SDS011;7697;51.630;7.484;2023-03-23T11:50:20;4.70;;;2.33;;
15192;SDS011;7697;51.630;7.484;2023-03-23T11:55:26;5.22;;;2.63;;
15192;SDS011;7697;51.630;7.484;2023-03-23T12:00:34;3.58;;;1.98;;
15192;SDS011;7697;51.630;7.484;2023-03-23T12:05:40;5.03;;;2.00;;
15192;SDS011;7697;51.630;7.484;2023-03-23T12:10:49;3.55;;;2.00;;
15192;SDS011;7697;51.630;7.484;2023-03-23T12:16:00;3.38;;;1.77;;
15192;SDS011;7697;51.630;7.484;2023-03-23T12:21:12;3.22;;;1.60;;
15192;SDS011;7697;51.630;7.484;2023-03-23T12:26:22;3.67;;;1.65;;
15192;SDS011;7697;51.630;7.484;2023-03-23T12:31:31;3.85;;;2.05;;
15192;SDS011;7697;51.630;7.484;2023-03-23T12:36:53;4.93;;;2.55;;
15192;SDS011;7697;51.630;7.484;2023-03-23T12:42:05;2.88;;;2.00;;
15192;SDS011;7697;51.630;7.484;2023-03-23T12:47:20;5.40;;;3.10;;
15192;SDS011;7697;51.630;7.484;2023-03-23T12:52:32;4.20;;;3.33;;
15192;SDS011;7697;51.630;7.484;2023-03-23T12:57:42;6.93;;;5.03;;
15192;SDS011;7697;51.630;7.484;2023-03-23T13:02:55;5.20;;;4.00;;
15192;SDS011;7697;51.630;7.484;2023-03-23T13:08:02;4.35;;;3.60;;
15192;SDS011;7697;51.630;7.484;2023-03-23T13:13:10;4.70;;;3.80;;
15192;SDS011;7697;51.630;7.484;2023-03-23T13:18:19;4.97;;;4.28;;
15192;SDS011;7697;51.630;7.484;2023-03-23T13:23:32;6.32;;;4.28;;
15192;SDS011;7697;51.630;7.484;2023-03-23T13:28:46;4.28;;;3.60;;
15192;SDS011;7697;51.630;7.484;2023-03-23T13:33:57;6.97;;;3.78;;
15192;SDS011;7697;51.630;7.484;2023-03-23T13:39:00;7.18;;;4.15;;
15192;SDS011;7697;51.630;7.484;2023-03-23T13:44:15;4.50;;;2.53;;
15192;SDS011;7697;51.630;7.484;2023-03-23T13:49:21;5.28;;;3.45;;
15192;SDS011;7697;51.630;7.484;2023-03-23T13:54:29;5.18;;;2.95;;
15192;SDS011;7697;51.630;7.484;2023-03-23T13:59:34;3.58;;;2.38;;
15192;SDS011;7697;51.630;7.484;2023-03-23T14:04:38;3.35;;;2.13;;
15192;SDS011;7697;51.630;7.484;2023-03-23T14:09:41;4.75;;;2.45;;
15192;SDS011;7697;51.630;7.484;2023-03-23T14:14:45;5.78;;;2.45;;
15192;SDS011;7697;51.630;7.484;2023-03-23T14:19:51;4.18;;;2.30;;
15192;SDS011;7697;51.630;7.484;2023-03-23T14:24:59;4.53;;;2.47;;
15192;SDS011;7697;51.630;7.484;2023-03-23T14:30:06;7.60;;;3.75;;
15192;SDS011;7697;51.630;7.484;2023-03-23T14:35:13;4.93;;;2.38;;
15192;SDS011;7697;51.630;7.484;2023-03-23T14:40:19;4.97;;;2.38;;
15192;SDS011;7697;51.630;7.484;2023-03-23T14:45:21;4.95;;;2.45;;
15192;SDS011;7697;51.630;7.484;2023-03-23T14:50:27;5.70;;;3.40;;
15192;SDS011;7697;51.630;7.484;2023-03-23T14:55:30;6.15;;;3.00;;
15192;SDS011;7697;51.630;7.484;2023-03-23T15:00:33;4.20;;;2.20;;
15192;SDS011;7697;51.630;7.484;2023-03-23T15:05:41;4.35;;;2.88;;
15192;SDS011;7697;51.630;7.484;2023-03-23T15:10:53;5.28;;;3.30;;
15192;SDS011;7697;51.630;7.484;2023-03-23T15:16:06;3.55;;;3.08;;
15192;SDS011;7697;51.630;7.484;2023-03-23T15:21:20;6.97;;;4.65;;
15192;SDS011;7697;51.630;7.484;2023-03-23T15:26:29;4.82;;;3.42;;
15192;SDS011;7697;51.630;7.484;2023-03-23T15:31:33;4.45;;;3.22;;
15192;SDS011;7697;51.630;7.484;2023-03-23T15:36:37;3.60;;;3.30;;
15192;SDS011;7697;51.630;7.484;2023-03-23T15:41:45;5.35;;;3.50;;
15192;SDS011;7697;51.630;7.484;2023-03-23T15:46:49;6.03;;;3.63;;
15192;SDS011;7697;51.630;7.484;2023-03-23T15:51:53;5.20;;;3.50;;
15192;SDS011;7697;51.630;7.484;2023-03-23T15:56:55;6.53;;;4.13;;
15192;SDS011;7697;51.630;7.484;2023-03-23T16:01:57;5.60;;;3.10;;
15192;SDS011;7697;51.630;7.484;2023-03-23T16:07:01;5.63;;;3.72;;
15192;SDS011;7697;51.630;7.484;2023-03-23T16:12:04;4.95;;;2.30;;
15192;SDS011;7697;51.630;7.484;2023-03-23T16:17:08;3.95;;;2.63;;
15192;SDS011;7697;51.630;7.484;2023-03-23T16:22:14;5.38;;;2.58;;
15192;SDS011;7697;51.630;7.484;2023-03-23T16:27:15;3.95;;;2.40;;
15192;SDS011;7697;51.630;7.484;2023-03-23T16:32:20;3.60;;;2.60;;
15192;SDS011;7697;51.630;7.484;2023-03-23T16:37:23;4.80;;;2.65;;
15192;SDS011;7697;51.630;7.484;2023-03-23T16:42:25;5.15;;;3.55;;
15192;SDS011;7697;51.630;7.484;2023-03-23T16:47:27;6.22;;;3.00;;
15192;SDS011;7697;51.630;7.484;2023-03-23T16:52:30;5.82;;;2.72;;
15192;SDS011;7697;51.630;7.484;2023-03-23T16:57:32;5.82;;;2.08;;
15192;SDS011;7697;51.630;7.484;2023-03-23T17:02:39;4.35;;;2.22;;
15192;SDS011;7697;51.630;7.484;2023-03-23T17:07:42;2.75;;;1.88;;
15192;SDS011;7697;51.630;7.484;2023-03-23T17:12:44;4.47;;;2.20;;
15192;SDS011;7697;51.630;7.484;2023-03-23T17:17:46;3.20;;;2.72;;
15192;SDS011;7697;51.630;7.484;2023-03-23T17:22:49;3.45;;;2.50;;
15192;SDS011;7697;51.630;7.484;2023-03-23T17:27:51;3.35;;;2.28;;
15192;SDS011;7697;51.630;7.484;2023-03-23T17:32:53;4.20;;;2.47;;
15192;SDS011;7697;51.630;7.484;2023-03-23T17:37:56;3.08;;;2.13;;
15192;SDS011;7697;51.630;7.484;2023-03-23T17:42:58;3.03;;;2.08;;
15192;SDS011;7697;51.630;7.484;2023-03-23T17:48:00;4.10;;;2.30;;
15192;SDS011;7697;51.630;7.484;2023-03-23T17:53:07;3.28;;;2.30;;
15192;SDS011;7697;51.630;7.484;2023-03-23T17:58:09;3.85;;;2.28;;
15192;SDS011;7697;51.630;7.484;2023-03-23T18:03:12;4.28;;;2.35;;
15192;SDS011;7697;51.630;7.484;2023-03-23T18:08:16;4.03;;;2.35;;
15192;SDS011;7697;51.630;7.484;2023-03-23T18:13:17;4.75;;;2.67;;
15192;SDS011;7697;51.630;7.484;2023-03-23T18:18:19;4.13;;;2.42;;
15192;SDS011;7697;51.630;7.484;2023-03-23T18:23:23;6.13;;;2.90;;
15192;SDS011;7697;51.630;7.484;2023-03-23T18:28:25;7.85;;;3.85;;
15192;SDS011;7697;51.630;7.484;2023-03-23T18:33:27;4.47;;;3.13;;
15192;SDS011;7697;51.630;7.484;2023-03-23T18:38:30;5.25;;;2.92;;
15192;SDS011;7697;51.630;7.484;2023-03-23T18:43:32;4.78;;;3.13;;
15192;SDS011;7697;51.630;7.484;2023-03-23T18:48:34;5.35;;;3.60;;
15192;SDS011;7697;51.630;7.484;2023-03-23T18:53:38;4.38;;;3.00;;
15192;SDS011;7697;51.630;7.484;2023-03-23T18:58:41;4.43;;;2.72;;
15192;SDS011;7697;51.630;7.484;2023-03-23T19:03:44;3.40;;;2.85;;
15192;SDS011;7697;51.630;7.484;2023-03-23T19:08:48;4.57;;;2.88;;
15192;SDS011;7697;51.630;7.484;2023-03-23T19:13:51;6.57;;;3.63;;
15192;SDS011;7697;51.630;7.484;2023-03-23T19:18:53;4.38;;;2.50;;
15192;SDS011;7697;51.630;7.484;2023-03-23T19:23:56;4.85;;;2.63;;
15192;SDS011;7697;51.630;7.484;2023-03-23T19:28:58;5.03;;;2.65;;
15192;SDS011;7697;51.630;7.484;2023-03-23T19:33:59;3.65;;;2.00;;
15192;SDS011;7697;51.630;7.484;2023-03-23T19:39:03;6.70;;;2.38;;
15192;SDS011;7697;51.630;7.484;2023-03-23T19:44:06;5.22;;;2.15;;
15192;SDS011;7697;51.630;7.484;2023-03-23T19:49:08;4.03;;;2.15;;
15192;SDS011;7697;51.630;7.484;2023-03-23T19:54:11;4.68;;;2.30;;
15192;SDS011;7697;51.630;7.484;2023-03-23T19:59:13;4.10;;;1.98;;
15192;SDS011;7697;51.630;7.484;2023-03-23T20:04:15;4.47;;;1.98;;
15192;SDS011;7697;51.630;7.484;2023-03-23T20:09:19;3.70;;;1.73;;
15192;SDS011;7697;51.630;7.484;2023-03-23T20:14:21;5.22;;;1.92;;
15192;SDS011;7697;51.630;7.484;2023-03-23T20:19:23;4.90;;;2.33;;
15192;SDS011;7697;51.630;7.484;2023-03-23T20:24:26;5.47;;;2.08;;
15192;SDS011;7697;51.630;7.484;2023-03-23T20:29:28;3.92;;;1.80;;
15192;SDS011;7697;51.630;7.484;2023-03-23T20:34:32;3.95;;;2.30;;
15192;SDS011;7697;51.630;7.484;2023-03-23T20:39:36;3.80;;;2.00;;
15192;SDS011;7697;51.630;7.484;2023-03-23T20:44:40;6.43;;;2.17;;
15192;SDS011;7697;51.630;7.484;2023-03-23T20:49:42;4.50;;;1.92;;
15192;SDS011;7697;51.630;7.484;2023-03-23T20:54:45;4.55;;;2.20;;
15192;SDS011;7697;51.630;7.484;2023-03-23T20:59:48;4.47;;;1.98;;
15192;SDS011;7697;51.630;7.484;2023-03-23T21:04:50;5.53;;;2.70;;
15192;SDS011;7697;51.630;7.484;2023-03-23T21:09:54;3.20;;;1.90;;
15192;SDS011;7697;51.630;7.484;2023-03-23T21:14:56;5.07;;;1.90;;
15192;SDS011;7697;51.630;7.484;2023-03-23T21:19:57;4.00;;;2.10;;
15192;SDS011;7697;51.630;7.484;2023-03-23T21:25:02;3.97;;;2.00;;
15192;SDS011;7697;51.630;7.484;2023-03-23T21:30:04;2.45;;;1.45;;
15192;SDS011;7697;51.630;7.484;2023-03-23T21:35:07;4.20;;;2.15;;
15192;SDS011;7697;51.630;7.484;2023-03-23T21:40:12;5.35;;;2.40;;
15192;SDS011;7697;51.630;7.484;2023-03-23T21:45:16;4.20;;;2.25;;
15192;SDS011;7697;51.630;7.484;2023-03-23T21:50:20;6.45;;;2.72;;
15192;SDS011;7697;51.630;7.484;2023-03-23T21:55:24;3.35;;;1.95;;
15192;SDS011;7697;51.630;7.484;2023-03-23T22:00:28;5.10;;;2.03;;
15192;SDS011;7697;51.630;7.484;2023-03-23T22:05:30;4.35;;;1.80;;
15192;SDS011;7697;51.630;7.484;2023-03-23T22:10:34;2.97;;;2.10;;
15192;SDS011;7697;51.630;7.484;2023-03-23T22:15:40;3.35;;;1.90;;
15192;SDS011;7697;51.630;7.484;2023-03-23T22:20:43;3.45;;;2.00;;
15192;SDS011;7697;51.630;7.484;2023-03-23T22:25:47;2.58;;;1.80;;
15192;SDS011;7697;51.630;7.484;2023-03-23T22:30:49;2.47;;;1.90;;
15192;SDS011;7697;51.630;7.484;2023-03-23T22:35:51;4.07;;;1.80;;
15192;SDS011;7697;51.630;7.484;2023-03-23T22:40:56;2.83;;;1.92;;
15192;SDS011;7697;51.630;7.484;2023-03-23T22:46:00;3.67;;;1.98;;
15192;SDS011;7697;51.630;7.484;2023-03-23T22:51:02;4.15;;;1.98;;
15192;SDS011;7697;51.630;7.484;2023-03-23T22:56:07;2.92;;;1.88;;
15192;SDS011;7697;51.630;7.484;2023-03-23T23:01:13;4.03;;;2.33;;
15192;SDS011;7697;51.630;7.484;2023-03-23T23:06:16;7.03;;;2.20;;
15192;SDS011;7697;51.630;7.484;2023-03-23T23:11:21;4.72;;;2.05;;
15192;SDS011;7697;51.630;7.484;2023-03-23T23:16:24;4.13;;;2.10;;
15192;SDS011;7697;51.630;7.484;2023-03-23T23:21:26;3.08;;;2.00;;
15192;SDS011;7697;51.630;7.484;2023-03-23T23:26:30;3.22;;;2.22;;
15192;SDS011;7697;51.630;7.484;2023-03-23T23:31:32;3.25;;;2.20;;
15192;SDS011;7697;51.630;7.484;2023-03-23T23:36:34;7.05;;;2.00;;
15192;SDS011;7697;51.630;7.484;2023-03-23T23:41:38;3.53;;;2.10;;
15192;SDS011;7697;51.630;7.484;2023-03-23T23:46:40;2.45;;;1.98;;
15192;SDS011;7697;51.630;7.484;2023-03-23T23:51:42;4.43;;;1.90;;
15192;SDS011;7697;51.630;7.484;2023-03-23T23:56:47;2.75;;;1.98;;
